Time;durP1;ratioP1;P1;durP2;ratioP2;P2;SDS_P1;SDS_P2;PMS_P1;PMS_P2;Temp;Humidity;BMP_temperature;BMP_pressure;BME280_temperature;BME280_humidity;BME280_pressure;Samples;Min_cycle;Max_cycle;Signal;HPM_P1;HPM_P2
2023/04/06 00:00:54;;;;;;;21.95;19.67;;;;;;;6.10;55.82;101679.22;5115139;28;20023;-58
2023/04/06 00:03:19;;;;;;;21.98;19.77;;;;;;;6.23;56.30;101679.72;5115988;28;20026;-58
2023/04/06 00:05:46;;;;;;;23.17;20.23;;;;;;;5.98;55.93;101674.34;5115592;28;20019;-58
2023/04/06 00:08:12;;;;;;;22.95;20.50;;;;;;;6.15;55.80;101674.69;5117021;27;20106;-58
2023/04/06 00:10:37;;;;;;;22.67;19.85;;;;;;;6.00;55.93;101668.09;5097213;28;20107;-58
2023/04/06 00:13:03;;;;;;;23.67;20.52;;;;;;;6.11;55.76;101657.19;5115786;28;20034;-58
2023/04/06 00:15:28;;;;;;;24.08;20.45;;;;;;;5.98;55.70;101663.78;5115244;27;20023;-58
2023/04/06 00:17:54;;;;;;;22.90;20.50;;;;;;;5.97;55.77;101660.28;5130098;27;20030;-58
2023/04/06 00:20:19;;;;;;;23.48;21.02;;;;;;;6.02;55.53;101658.34;5136083;27;20030;-58
2023/04/06 00:22:45;;;;;;;22.67;20.20;;;;;;;6.10;54.83;101653.69;5117758;27;20461;-58
2023/04/06 00:25:11;;;;;;;22.42;20.17;;;;;;;5.74;56.31;101654.81;5136026;27;20393;-58
2023/04/06 00:27:37;;;;;;;22.70;20.13;;;;;;;5.95;56.21;101655.94;5134255;27;20019;-58
2023/04/06 00:30:04;;;;;;;25.25;20.50;;;;;;;5.74;56.41;101644.25;5135571;27;20033;-58
2023/04/06 00:32:30;;;;;;;22.20;20.02;;;;;;;5.78;56.52;101641.44;5116103;27;20493;-58
2023/04/06 00:34:55;;;;;;;23.42;21.13;;;;;;;5.74;56.32;101646.88;5115767;27;20024;-58
2023/04/06 00:37:21;;;;;;;23.00;20.50;;;;;;;5.84;55.98;101640.41;5111592;27;20047;-58
2023/04/06 00:39:46;;;;;;;22.50;20.10;;;;;;;5.62;56.78;101643.69;5110417;28;20098;-58
2023/04/06 00:42:15;;;;;;;24.40;20.08;;;;;;;5.67;55.91;101636.47;5112327;28;20078;-58
2023/04/06 00:44:41;;;;;;;22.17;19.77;;;;;;;5.77;55.68;101637.09;5094371;28;20085;-58
2023/04/06 00:47:07;;;;;;;25.10;20.92;;;;;;;5.75;55.53;101632.75;5112684;27;20819;-58
2023/04/06 00:49:33;;;;;;;22.67;20.48;;;;;;;5.66;56.04;101624.19;5097035;28;20039;-58
2023/04/06 00:51:59;;;;;;;23.65;20.20;;;;;;;5.76;55.77;101637.13;5114828;28;20107;-57
2023/04/06 00:54:25;;;;;;;22.15;19.95;;;;;;;5.54;55.55;101614.03;5114961;28;20103;-58
2023/04/06 00:56:51;;;;;;;23.05;20.13;;;;;;;5.74;54.58;101620.50;5123936;27;20030;-58
2023/04/06 00:59:17;;;;;;;22.30;20.08;;;;;;;5.55;53.94;101614.88;5116666;27;20042;-58
2023/04/06 01:01:42;;;;;;;22.60;20.30;;;;;;;5.59;54.27;101616.50;5116691;27;20020;-58
2023/04/06 01:04:10;;;;;;;22.17;19.77;;;;;;;5.51;54.61;101619.41;5135432;27;20031;-58
2023/04/06 01:06:35;;;;;;;22.38;20.17;;;;;;;5.53;54.27;101614.94;5132275;27;20156;-58
2023/04/06 01:09:01;;;;;;;21.77;19.38;;;;;;;5.52;55.96;101613.19;5134972;27;20064;-58
2023/04/06 01:11:26;;;;;;;24.27;20.77;;;;;;;5.43;54.52;101603.78;5118161;28;20053;-58
2023/04/06 01:13:52;;;;;;;21.52;19.33;;;;;;;5.50;54.18;101608.88;5114225;28;20402;-58
2023/04/06 01:16:18;;;;;;;21.80;19.58;;;;;;;5.54;54.58;101606.09;5102015;27;20032;-58
2023/04/06 01:18:43;;;;;;;22.45;20.13;;;;;;;5.58;54.08;101589.25;5134796;27;20110;-58
2023/04/06 01:21:15;;;;;;;22.58;20.20;;;;;;;5.67;54.05;101607.44;5134964;27;20462;-58
2023/04/06 01:23:47;;;;;;;23.25;20.92;;;;;;;5.58;54.46;101610.38;5134287;27;20382;-58
2023/04/06 01:26:13;;;;;;;23.30;20.80;;;;;;;5.59;54.94;101606.84;5132786;27;20042;-58
2023/04/06 01:28:39;;;;;;;23.83;20.63;;;;;;;5.70;52.58;101603.84;5116245;27;20023;-58
2023/04/06 01:31:07;;;;;;;24.65;21.55;;;;;;;5.75;53.39;101607.22;5134266;27;20504;-58
2023/04/06 01:33:32;;;;;;;23.23;20.90;;;;;;;5.83;52.50;101599.09;5116178;27;20385;-58
2023/04/06 01:35:58;;;;;;;26.05;22.50;;;;;;;5.64;53.79;101594.34;5127886;27;20034;-58
2023/04/06 01:38:24;;;;;;;23.55;20.95;;;;;;;5.79;53.25;101593.00;5113902;28;20028;-58
2023/04/06 01:40:50;;;;;;;24.38;21.90;;;;;;;5.63;55.50;101591.78;5097120;27;20026;-58
2023/04/06 01:43:15;;;;;;;24.48;21.00;;;;;;;5.78;52.49;101572.81;5113725;28;20444;-58
2023/04/06 01:45:41;;;;;;;26.63;21.75;;;;;;;5.84;53.82;101591.09;5114096;27;20034;-58
2023/04/06 01:48:07;;;;;;;24.15;21.65;;;;;;;5.89;53.07;101583.91;5113985;27;20542;-58
2023/04/06 01:50:32;;;;;;;23.42;21.05;;;;;;;5.72;52.63;101588.84;5113539;28;20402;-58
2023/04/06 01:52:58;;;;;;;24.58;21.55;;;;;;;5.67;53.74;101575.78;5113830;28;20019;-58
2023/04/06 01:55:23;;;;;;;25.05;22.42;;;;;;;5.93;53.99;101571.50;5116650;27;20470;-58
2023/04/06 01:57:49;;;;;;;24.05;21.55;;;;;;;6.02;53.44;101565.06;5124276;27;20031;-58
2023/04/06 02:00:16;;;;;;;25.27;22.38;;;;;;;5.92;52.44;101567.97;5112105;28;20023;-58
2023/04/06 02:02:42;;;;;;;25.75;22.25;;;;;;;5.96;53.33;101558.19;5113712;28;20031;-58
2023/04/06 02:05:08;;;;;;;26.05;22.02;;;;;;;5.73;54.13;101555.41;5095361;28;20042;-58
2023/04/06 02:07:33;;;;;;;25.33;22.42;;;;;;;5.91;53.05;101552.16;5111978;27;20026;-58
2023/04/06 02:09:59;;;;;;;25.10;22.27;;;;;;;5.90;53.64;101558.38;5102768;28;20034;-58
2023/04/06 02:12:24;;;;;;;28.40;23.15;;;;;;;5.89;53.16;101561.94;5093687;28;20023;-58
2023/04/06 02:14:50;;;;;;;26.25;23.50;;;;;;;5.82;54.72;101560.38;5094541;27;20039;-58
2023/04/06 02:17:15;;;;;;;28.08;24.02;;;;;;;5.90;53.63;101558.38;5122688;27;20061;-58
2023/04/06 02:19:41;;;;;;;26.15;23.30;;;;;;;5.91;53.72;101553.06;5109749;28;20076;-58
2023/04/06 02:22:08;;;;;;;26.10;23.38;;;;;;;5.88;55.62;101553.16;5111484;28;20114;-58
2023/04/06 02:24:34;;;;;;;26.13;23.45;;;;;;;5.92;53.41;101551.28;5094746;28;20053;-58
2023/04/06 02:27:00;;;;;;;26.33;23.33;;;;;;;5.87;53.03;101548.75;5108322;27;20500;-58
2023/04/06 02:29:25;;;;;;;27.00;24.25;;;;;;;5.93;54.47;101545.09;5100738;28;20024;-58
2023/04/06 02:31:51;;;;;;;26.98;24.17;;;;;;;5.92;53.91;101543.34;5108037;28;20046;-58
2023/04/06 02:34:19;;;;;;;26.40;23.67;;;;;;;5.94;53.65;101541.53;5074495;28;20035;-58
2023/04/06 02:36:47;;;;;;;33.95;25.35;;;;;;;5.72;55.62;101522.00;5113183;27;20080;-58
2023/04/06 02:39:14;;;;;;;27.58;24.67;;;;;;;5.90;54.32;101538.09;5092565;28;20053;-58
2023/04/06 02:41:39;;;;;;;30.63;25.50;;;;;;;5.89;54.00;101524.97;5092988;28;20043;-58
2023/04/06 02:44:09;;;;;;;27.90;25.00;;;;;;;5.91;53.16;101531.03;5111834;28;20037;-58
2023/04/06 02:46:35;;;;;;;27.85;24.95;;;;;;;5.95;53.48;101521.31;5128974;27;20394;-58
2023/04/06 02:49:00;;;;;;;28.65;25.27;;;;;;;5.89;53.81;101522.34;5092336;28;20023;-58
2023/04/06 02:51:26;;;;;;;28.98;25.85;;;;;;;5.72;56.12;101514.94;5074403;28;20019;-58
2023/04/06 02:53:52;;;;;;;31.00;25.77;;;;;;;5.95;54.18;101516.03;5099561;28;20030;-58
2023/04/06 02:56:17;;;;;;;28.13;25.23;;;;;;;5.85;54.66;101513.66;5111532;27;20028;-58
2023/04/06 02:58:43;;;;;;;29.25;25.75;;;;;;;5.95;53.98;101516.88;5110407;28;20428;-58
2023/04/06 03:01:08;;;;;;;31.23;25.95;;;;;;;5.98;54.50;101510.63;5077038;28;20032;-58
2023/04/06 03:03:33;;;;;;;29.77;25.50;;;;;;;5.87;54.26;101501.25;5087406;28;20016;-58
2023/04/06 03:06:00;;;;;;;28.00;25.17;;;;;;;5.87;53.73;101511.81;5108799;27;20016;-57
2023/04/06 03:08:27;;;;;;;31.10;27.05;;;;;;;5.87;54.04;101509.16;5083086;28;20065;-58
2023/04/06 03:10:53;;;;;;;31.48;26.67;;;;;;;5.84;55.12;101511.06;5093833;28;20363;-58
2023/04/06 03:13:18;;;;;;;29.67;26.58;;;;;;;5.88;53.42;101502.09;5089527;28;20031;-58
2023/04/06 03:15:44;;;;;;;35.10;27.52;;;;;;;5.91;53.49;101502.00;5114222;28;20023;-58
2023/04/06 03:18:09;;;;;;;32.50;26.38;;;;;;;5.90;53.05;101490.59;5111286;28;20394;-58
2023/04/06 03:20:35;;;;;;;30.23;26.73;;;;;;;5.97;53.98;101495.69;5090712;28;20028;-58
2023/04/06 03:23:00;;;;;;;29.63;26.48;;;;;;;6.04;53.62;101494.59;5107204;28;20031;-58
2023/04/06 03:25:30;;;;;;;30.55;26.75;;;;;;;5.93;53.27;101489.66;5101227;28;20016;-58
2023/04/06 03:27:56;;;;;;;;;;;;;;;6.18;52.51;101483.53;5110350;28;20031;-58
2023/04/06 03:30:23;;;;;;;35.30;27.55;;;;;;;5.92;53.23;101490.56;5109877;28;19908;-58
2023/04/06 03:32:49;;;;;;;29.48;25.90;;;;;;;5.85;53.81;101489.91;5112317;28;20031;-58
2023/04/06 03:35:14;;;;;;;33.70;27.10;;;;;;;5.90;53.35;101481.81;5116439;27;20024;-58
2023/04/06 03:37:39;;;;;;;31.10;27.58;;;;;;;5.91;54.09;101479.13;5115948;28;20026;-58
2023/04/06 03:40:05;;;;;;;31.27;28.08;;;;;;;5.94;53.02;101477.31;5098570;28;20458;-58
2023/04/06 03:42:32;;;;;;;29.48;26.23;;;;;;;5.85;53.62;101475.81;5097709;28;20070;-58
2023/04/06 03:44:58;;;;;;;30.33;27.10;;;;;;;5.90;53.47;101473.88;5098940;28;20073;-58
2023/04/06 03:47:24;;;;;;;30.42;27.13;;;;;;;5.87;53.68;101472.22;5097347;28;20024;-58
2023/04/06 03:49:49;;;;;;;32.25;28.75;;;;;;;5.92;53.15;101483.50;5116174;28;20567;-58
2023/04/06 03:52:15;;;;;;;29.75;26.65;;;;;;;5.85;54.20;101489.00;5115683;28;20058;-58
2023/04/06 03:54:40;;;;;;;30.70;27.27;;;;;;;5.81;53.65;101467.13;5116319;27;20374;-58
2023/04/06 03:57:08;;;;;;;30.10;26.85;;;;;;;5.86;53.54;101485.47;5095550;28;20028;-58
2023/04/06 03:59:33;;;;;;;33.85;27.00;;;;;;;5.90;53.18;101480.03;5097570;28;20039;-58
2023/04/06 04:01:59;;;;;;;31.88;28.17;;;;;;;5.80;52.95;101473.34;5115419;28;20047;-58
2023/04/06 04:04:26;;;;;;;30.83;27.35;;;;;;;5.79;53.57;101482.16;5117100;27;20065;-58
2023/04/06 04:06:52;;;;;;;30.73;27.42;;;;;;;5.84;54.24;101484.66;5097142;28;20057;-58
2023/04/06 04:09:17;;;;;;;31.52;28.13;;;;;;;5.81;53.62;101480.34;5097488;28;20432;-58
2023/04/06 04:11:42;;;;;;;30.23;26.55;;;;;;;5.70;54.94;101478.03;5115564;28;20020;-58
2023/04/06 04:14:08;;;;;;;31.55;28.25;;;;;;;5.66;55.12;101479.06;5123094;27;20022;-58
2023/04/06 04:16:33;;;;;;;31.77;28.10;;;;;;;5.61;54.62;101485.41;5117328;27;20065;-58
2023/04/06 04:18:59;;;;;;;30.10;27.00;;;;;;;5.72;54.43;101483.28;5117811;27;20031;-58
2023/04/06 04:21:30;;;;;;;29.23;26.23;;;;;;;5.62;54.81;101487.16;5117215;27;20049;-58
2023/04/06 04:23:55;;;;;;;31.05;27.83;;;;;;;5.63;54.45;101484.44;5134460;27;20440;-58
2023/04/06 04:26:21;;;;;;;30.75;27.55;;;;;;;5.55;54.05;101469.78;5135904;27;20019;-58
2023/04/06 04:28:46;;;;;;;31.08;27.85;;;;;;;5.67;54.33;101475.50;5117154;27;20015;-58
2023/04/06 04:31:12;;;;;;;30.92;27.63;;;;;;;5.66;54.03;101479.06;5116828;27;20106;-58
2023/04/06 04:33:37;;;;;;;30.88;27.58;;;;;;;5.57;54.59;101482.00;5112140;28;20042;-58
2023/04/06 04:36:03;;;;;;;30.35;27.08;;;;;;;5.63;54.36;101478.31;5114760;28;20028;-58
2023/04/06 04:38:29;;;;;;;29.67;26.55;;;;;;;5.57;54.38;101475.88;5096773;28;20020;-58
2023/04/06 04:40:56;;;;;;;34.13;28.20;;;;;;;5.50;54.02;101469.94;5096553;28;20016;-58
2023/04/06 04:43:22;;;;;;;30.55;27.08;;;;;;;5.65;53.43;101477.34;5115080;27;20024;-58
2023/04/06 04:45:47;;;;;;;32.00;28.25;;;;;;;5.63;53.92;101473.88;5115808;27;20068;-58
2023/04/06 04:48:13;;;;;;;30.83;27.60;;;;;;;5.58;54.70;101472.31;5129543;27;20101;-58
2023/04/06 04:50:38;;;;;;;32.10;28.42;;;;;;;5.54;55.91;101474.19;5116664;27;20024;-57
2023/04/06 04:53:06;;;;;;;31.58;28.13;;;;;;;5.64;54.92;101467.69;5096652;28;20028;-58
2023/04/06 04:55:32;;;;;;;32.67;25.98;;;;;;;5.64;54.10;101451.84;5097449;28;20031;-58
2023/04/06 04:57:58;;;;;;;31.38;28.20;;;;;;;5.60;55.54;101460.78;5120127;27;20478;-58
2023/04/06 05:00:23;;;;;;;31.88;28.00;;;;;;;5.61;55.96;101451.94;5096320;28;20431;-58
2023/04/06 05:02:49;;;;;;;30.45;27.33;;;;;;;5.70;54.52;101456.06;5112970;28;20015;-58
2023/04/06 05:05:17;;;;;;;32.05;27.45;;;;;;;5.69;54.70;101449.94;5094160;28;20019;-58
2023/04/06 05:07:45;;;;;;;32.55;25.17;;;;;;;5.74;54.30;101460.34;5092967;28;20023;-58
2023/04/06 05:10:10;;;;;;;30.80;27.50;;;;;;;5.72;54.33;101462.16;5105986;27;20031;-58
2023/04/06 05:12:37;;;;;;;29.70;26.50;;;;;;;5.71;54.28;101452.53;5113682;27;20016;-57
2023/04/06 05:15:03;;;;;;;31.90;26.63;;;;;;;5.78;54.41;101458.47;5112490;27;20088;-58
2023/04/06 05:17:28;;;;;;;33.83;28.90;;;;;;;5.66;55.59;101452.69;5110803;28;20107;-58
2023/04/06 05:19:54;;;;;;;30.02;26.65;;;;;;;5.70;54.11;101446.38;5114779;27;20024;-58
2023/04/06 05:22:19;;;;;;;34.33;28.40;;;;;;;5.78;54.95;101453.19;5128730;27;20513;-58
2023/04/06 05:24:47;;;;;;;30.15;26.85;;;;;;;5.82;54.15;101462.72;5090806;28;20020;-58
2023/04/06 05:27:13;;;;;;;32.45;27.83;;;;;;;5.90;54.85;101456.28;5093722;28;20024;-58
2023/04/06 05:29:38;;;;;;;30.20;27.02;;;;;;;5.87;54.67;101447.59;5093633;28;20027;-58
2023/04/06 05:32:04;;;;;;;30.75;27.25;;;;;;;5.89;54.40;101465.13;5093151;28;20387;-57
2023/04/06 05:34:29;;;;;;;31.60;27.90;;;;;;;5.94;54.47;101462.34;5092253;28;20023;-58
2023/04/06 05:36:55;;;;;;;31.98;28.05;;;;;;;5.91;54.69;101457.13;5096984;27;20028;-58
2023/04/06 05:39:20;;;;;;;32.85;27.30;;;;;;;5.91;54.89;101452.75;5095571;28;20352;-57
2023/04/06 05:41:46;;;;;;;36.42;27.98;;;;;;;5.96;54.55;101452.59;5113546;28;20109;-57
2023/04/06 05:44:11;;;;;;;33.72;27.40;;;;;;;5.89;54.38;101466.91;5093292;28;20016;-57
2023/04/06 05:46:36;;;;;;;29.52;26.38;;;;;;;5.87;55.00;101463.44;5110825;28;20042;-57
2023/04/06 05:49:04;;;;;;;31.58;27.77;;;;;;;5.85;54.49;101465.25;5112007;28;20012;-58
2023/04/06 05:51:29;;;;;;;30.67;27.38;;;;;;;5.87;54.87;101460.78;5113320;28;20429;-57
2023/04/06 05:53:55;;;;;;;32.80;27.55;;;;;;;5.85;54.35;101450.31;5114844;27;20020;-57
2023/04/06 05:56:20;;;;;;;30.63;25.70;;;;;;;5.91;53.65;101451.84;5080961;28;20034;-57
2023/04/06 05:58:46;;;;;;;30.60;26.90;;;;;;;5.89;53.61;101451.91;5093334;28;20473;-58
2023/04/06 06:01:11;;;;;;;30.42;27.23;;;;;;;5.85;53.95;101452.94;5093316;28;20028;-58
2023/04/06 06:03:37;;;;;;;30.65;27.45;;;;;;;5.81;53.94;101455.72;5110748;28;20378;-58
2023/04/06 06:06:03;;;;;;;30.10;26.85;;;;;;;5.80;53.70;101454.88;5108659;28;20028;-58
2023/04/06 06:08:29;;;;;;;31.45;28.00;;;;;;;5.81;54.64;101455.72;5113369;28;20090;-57
2023/04/06 06:10:55;;;;;;;31.15;27.95;;;;;;;5.83;54.05;101461.81;5111739;28;20511;-57
2023/04/06 06:13:22;;;;;;;30.08;25.95;;;;;;;5.84;54.22;101451.19;5113650;28;20051;-58
2023/04/06 06:15:48;;;;;;;30.27;26.38;;;;;;;6.00;54.81;101461.25;5110932;28;20051;-57
2023/04/06 06:18:13;;;;;;;30.63;27.15;;;;;;;6.01;54.27;101466.50;5097597;28;20143;-57
2023/04/06 06:20:38;;;;;;;30.05;26.42;;;;;;;5.97;53.54;101461.38;5106817;28;20023;-57
2023/04/06 06:23:04;;;;;;;30.63;27.40;;;;;;;5.86;54.29;101451.16;5110449;28;20534;-57
2023/04/06 06:25:30;;;;;;;31.73;27.17;;;;;;;5.96;54.73;101454.38;5084731;28;20067;-58
2023/04/06 06:27:56;;;;;;;30.42;27.23;;;;;;;5.97;54.22;101459.63;5105113;28;20020;-57
2023/04/06 06:30:24;;;;;;;33.38;27.15;;;;;;;5.88;55.82;101463.41;5111106;28;20031;-57
2023/04/06 06:32:50;;;;;;;30.40;27.25;;;;;;;5.93;54.18;101468.53;5112389;28;20382;-57
2023/04/06 06:35:16;;;;;;;30.33;27.13;;;;;;;5.95;54.93;101464.09;5105806;28;20028;-57
2023/04/06 06:37:42;;;;;;;30.67;27.35;;;;;;;6.13;54.55;101463.44;5107295;28;20089;-57
2023/04/06 06:40:10;;;;;;;30.98;26.25;;;;;;;6.03;54.38;101458.53;5057863;28;20024;-57
2023/04/06 06:42:35;;;;;;;31.77;27.60;;;;;;;6.04;55.08;101461.13;5097496;28;20401;-57
2023/04/06 06:45:01;;;;;;;30.35;27.08;;;;;;;6.06;54.83;101455.78;5112186;28;20023;-57
2023/04/06 06:47:26;;;;;;;32.72;26.73;;;;;;;6.06;54.92;101448.75;5111561;28;20027;-57
2023/04/06 06:49:52;;;;;;;30.08;26.92;;;;;;;6.12;55.07;101452.94;5110672;28;20019;-57
2023/04/06 06:52:17;;;;;;;30.20;27.02;;;;;;;6.10;54.88;101458.28;5112432;28;20385;-57
2023/04/06 06:54:43;;;;;;;30.75;27.42;;;;;;;6.18;54.60;101460.66;5112327;28;20026;-57
2023/04/06 06:57:09;;;;;;;34.10;26.98;;;;;;;6.21;54.61;101460.53;5094033;28;20019;-57
2023/04/06 06:59:34;;;;;;;34.42;27.42;;;;;;;6.16;55.05;101451.91;5110583;28;20102;-57
2023/04/06 07:01:59;;;;;;;29.55;26.48;;;;;;;6.14;54.57;101457.22;5111495;28;20106;-57
2023/04/06 07:04:25;;;;;;;30.23;26.58;;;;;;;6.16;54.96;101457.19;5112406;28;20102;-57
2023/04/06 07:06:53;;;;;;;30.98;26.42;;;;;;;6.26;55.85;101457.72;5112179;28;20476;-57
2023/04/06 07:09:18;;;;;;;29.35;26.48;;;;;;;6.29;55.01;101454.97;5109777;28;20027;-57
2023/04/06 07:11:44;;;;;;;29.70;26.10;;;;;;;6.26;55.43;101449.78;5112002;28;20466;-57
2023/04/06 07:14:11;;;;;;;29.20;26.08;;;;;;;6.30;55.44;101454.06;5112474;28;20027;-57
2023/04/06 07:16:36;;;;;;;30.42;26.55;;;;;;;6.39;55.78;101455.53;5111398;28;20020;-57
2023/04/06 07:19:02;;;;;;;30.80;26.73;;;;;;;6.37;54.99;101448.50;5094013;28;20034;-57
2023/04/06 07:21:27;;;;;;;32.05;27.00;;;;;;;6.40;55.06;101454.59;5092104;28;20031;-57
2023/04/06 07:23:53;;;;;;;30.33;26.73;;;;;;;6.41;55.54;101453.66;5112241;28;20031;-57
2023/04/06 07:26:18;;;;;;;32.22;25.88;;;;;;;6.39;55.50;101455.53;5093887;28;20049;-57
2023/04/06 07:28:44;;;;;;;31.30;25.73;;;;;;;6.49;55.81;101447.19;5112131;28;20047;-57
2023/04/06 07:31:09;;;;;;;29.20;26.05;;;;;;;6.60;55.24;101449.47;5109182;28;20038;-57
2023/04/06 07:33:35;;;;;;;30.52;26.35;;;;;;;6.56;55.13;101451.34;5093702;28;20042;-57
2023/04/06 07:36:00;;;;;;;31.05;27.33;;;;;;;6.58;55.03;101438.94;5112078;28;20061;-57
2023/04/06 07:38:26;;;;;;;29.63;25.98;;;;;;;6.71;55.12;101446.44;5077065;28;20062;-57
2023/04/06 07:40:51;;;;;;;32.58;26.60;;;;;;;6.74;55.33;101443.66;5100789;28;20490;-57
2023/04/06 07:43:17;;;;;;;29.60;26.48;;;;;;;6.75;55.12;101448.03;5091485;28;20054;-57
2023/04/06 07:45:42;;;;;;;30.45;27.02;;;;;;;6.71;55.04;101446.44;5090649;28;20020;-57
2023/04/06 07:48:08;;;;;;;29.63;25.02;;;;;;;6.66;55.32;101445.72;5073663;28;20028;-57
2023/04/06 07:50:33;;;;;;;32.05;25.60;;;;;;;6.68;54.77;101449.19;5081273;28;20030;-57
2023/04/06 07:53:00;;;;;;;37.30;26.65;;;;;;;6.69;55.35;101449.09;5132421;28;20027;-57
2023/04/06 07:55:25;;;;;;;30.20;26.90;;;;;;;6.71;54.82;101451.72;5113884;28;20031;-57
2023/04/06 07:57:51;;;;;;;28.90;25.63;;;;;;;6.68;54.97;101450.03;5132206;28;20026;-57
2023/04/06 08:00:19;;;;;;;29.40;25.95;;;;;;;6.69;55.37;101453.53;5123902;28;20118;-57
2023/04/06 08:02:45;;;;;;;31.35;26.38;;;;;;;6.70;55.50;101448.19;5111654;28;20032;-57
2023/04/06 08:05:13;;;;;;;29.35;26.15;;;;;;;6.69;55.73;101451.75;5111897;28;20102;-57
2023/04/06 08:07:38;;;;;;;29.35;26.20;;;;;;;6.71;56.28;101449.94;5111842;28;20028;-57
2023/04/06 08:10:04;;;;;;;29.63;25.65;;;;;;;6.83;56.29;101448.59;5093548;28;20046;-57
2023/04/06 08:12:32;;;;;;;30.10;25.55;;;;;;;6.90;56.32;101436.84;5127985;28;20397;-57
2023/04/06 08:14:58;;;;;;;33.60;26.70;;;;;;;7.02;57.06;101444.31;5131878;28;20109;-57
2023/04/06 08:17:23;;;;;;;29.60;26.25;;;;;;;7.12;56.57;101442.19;5131792;28;20106;-57
2023/04/06 08:19:49;;;;;;;35.33;26.55;;;;;;;7.21;56.78;101447.13;5127375;27;20024;-57
2023/04/06 08:22:14;;;;;;;28.70;25.73;;;;;;;7.26;56.11;101447.81;5080062;28;20524;-57
2023/04/06 08:24:40;;;;;;;30.60;27.15;;;;;;;7.31;56.06;101455.53;5115602;28;20023;-57
2023/04/06 08:27:05;;;;;;;30.10;26.85;;;;;;;7.34;56.29;101444.84;5115337;28;20467;-57
2023/04/06 08:29:31;;;;;;;33.75;26.15;;;;;;;7.44;56.72;101455.91;5115691;27;20028;-57
2023/04/06 08:31:56;;;;;;;28.80;25.73;;;;;;;7.43;57.27;101454.19;5114976;28;20033;-57
2023/04/06 08:34:22;;;;;;;29.23;25.90;;;;;;;7.43;56.80;101447.13;5097088;28;20055;-57
2023/04/06 08:36:48;;;;;;;29.52;25.77;;;;;;;7.44;56.79;101451.50;5096733;28;20027;-57
2023/04/06 08:39:13;;;;;;;33.35;26.27;;;;;;;7.46;56.96;101457.56;5099651;27;20042;-57
2023/04/06 08:41:43;;;;;;;29.30;25.27;;;;;;;7.51;57.04;101454.75;5135343;27;20405;-57
2023/04/06 08:44:11;;;;;;;32.55;26.85;;;;;;;7.41;57.06;101441.03;5135512;27;20038;-57
2023/04/06 08:46:36;;;;;;;29.42;25.05;;;;;;;7.48;57.17;101458.38;5134982;27;20038;-58
2023/04/06 08:49:03;;;;;;;31.98;26.90;;;;;;;7.50;57.41;101460.97;5117138;27;20530;-57
2023/04/06 08:51:30;;;;;;;32.45;26.27;;;;;;;7.49;57.88;101460.09;5114821;27;20072;-57
2023/04/06 08:53:58;;;;;;;32.95;26.85;;;;;;;7.59;57.87;101457.97;5106327;28;20031;-58
2023/04/06 08:56:25;;;;;;;29.48;26.25;;;;;;;7.63;58.02;101456.03;5106968;27;20103;-58
2023/04/06 08:58:52;;;;;;;32.55;27.08;;;;;;;7.65;58.05;101462.16;5092314;27;20455;-57
2023/04/06 09:01:25;;;;;;;31.10;26.05;;;;;;;7.74;57.87;101457.31;5106626;28;20498;-57
2023/04/06 09:03:53;;;;;;;31.23;26.83;;;;;;;7.84;58.21;101454.28;5114104;28;20467;-57
2023/04/06 09:06:18;;;;;;;30.67;25.95;;;;;;;7.87;58.38;101449.72;5113904;27;20442;-58
2023/04/06 09:08:44;;;;;;;28.73;25.75;;;;;;;7.98;58.33;101457.22;5111018;28;20036;-57
2023/04/06 09:11:10;;;;;;;36.25;27.50;;;;;;;7.94;58.81;101456.50;5111757;27;20062;-57
2023/04/06 09:13:51;;;;;;;32.13;26.58;;;;;;;8.04;59.28;101456.09;5113959;27;20478;-57
2023/04/06 09:16:17;;;;;;;32.92;26.08;;;;;;;8.16;60.27;101463.50;5113342;27;20027;-58
2023/04/06 09:18:42;;;;;;;31.15;26.67;;;;;;;8.16;59.90;101459.06;5095938;27;20040;-59
2023/04/06 09:21:09;;;;;;;32.00;27.88;;;;;;;8.21;61.38;101461.53;5092697;28;20482;-57
2023/04/06 09:23:37;;;;;;;28.65;25.58;;;;;;;8.25;61.50;101467.56;5111970;27;20501;-57
2023/04/06 09:26:07;;;;;;;31.55;26.20;;;;;;;8.23;61.45;101467.59;5107688;27;20119;-58
2023/04/06 09:28:42;;;;;;;29.30;26.20;;;;;;;8.25;63.05;101467.56;5113182;28;20023;-57
2023/04/06 09:31:09;;;;;;;32.85;26.40;;;;;;;8.28;63.33;101462.13;5101830;28;20078;-57
2023/04/06 09:33:38;;;;;;;29.20;25.15;;;;;;;8.27;62.25;101463.06;5099174;28;20023;-58
2023/04/06 09:36:04;;;;;;;29.00;25.73;;;;;;;8.37;63.10;101462.56;5092815;28;20050;-57
2023/04/06 09:38:29;;;;;;;29.13;24.77;;;;;;;8.41;63.20;101460.66;5114269;27;20015;-57
2023/04/06 09:40:57;;;;;;;27.92;24.88;;;;;;;8.46;64.84;101463.13;5113302;28;20024;-57
2023/04/06 09:43:29;;;;;;;25.13;22.52;;;;;;;8.43;62.64;101461.47;5111702;28;20047;-58
2023/04/06 09:45:56;;;;;;;27.23;24.17;;;;;;;8.41;63.82;101455.38;5110592;28;20083;-57
2023/04/06 09:48:25;;;;;;;27.52;23.25;;;;;;;8.45;64.05;101462.28;5113256;28;20016;-58
2023/04/06 09:50:57;;;;;;;25.95;22.48;;;;;;;8.45;63.84;101458.78;5110835;27;20478;-57
2023/04/06 09:53:26;;;;;;;25.63;22.65;;;;;;;8.43;64.38;101465.91;5094599;28;20024;-57
2023/04/06 09:55:58;;;;;;;27.08;22.55;;;;;;;8.45;65.62;101459.63;5108254;27;20024;-57
2023/04/06 09:58:26;;;;;;;24.08;21.58;;;;;;;8.45;66.16;101459.63;5095440;27;20555;-58
2023/04/06 10:00:54;;;;;;;25.25;21.33;;;;;;;8.35;67.75;101451.19;5089162;28;20035;-57
2023/04/06 10:03:45;;;;;;;24.25;21.55;;;;;;;8.37;67.55;101459.91;5111457;28;20027;-58
2023/04/06 10:06:14;;;;;;;23.92;20.65;;;;;;;8.33;68.96;101458.34;5111919;28;20156;-57
2023/04/06 10:08:42;;;;;;;25.30;20.85;;;;;;;8.35;69.82;101459.16;5093068;28;20367;-57
2023/04/06 10:11:09;;;;;;;23.27;20.98;;;;;;;8.31;71.53;101456.69;5088934;28;20027;-57
2023/04/06 10:13:35;;;;;;;23.63;21.13;;;;;;;8.35;71.39;101452.97;5110209;27;20073;-57
2023/04/06 10:16:01;;;;;;;24.20;21.52;;;;;;;8.30;71.12;101450.53;5112072;28;20501;-57
2023/04/06 10:18:27;;;;;;;22.73;20.00;;;;;;;8.30;72.08;101458.47;5117888;27;20034;-57
2023/04/06 10:21:06;;;;;;;22.15;19.95;;;;;;;8.31;73.40;101459.34;5094055;28;20023;-58
2023/04/06 10:23:46;;;;;;;21.60;19.33;;;;;;;8.25;72.63;101464.91;5112228;28;20024;-57
2023/04/06 10:26:20;;;;;;;23.70;19.88;;;;;;;8.23;73.62;101464.97;5112803;27;20023;-57
2023/04/06 10:28:46;;;;;;;24.45;20.50;;;;;;;8.19;73.51;101460.72;5106683;27;20098;-57
2023/04/06 10:31:12;;;;;;;21.90;19.75;;;;;;;8.21;75.41;101466.84;5091495;28;20534;-57
2023/04/06 10:33:38;;;;;;;24.40;20.63;;;;;;;8.23;77.03;101454.34;5073781;28;20024;-57
2023/04/06 10:36:14;;;;;;;22.67;19.63;;;;;;;8.25;76.33;101454.31;5111281;28;20035;-57
2023/04/06 10:38:41;;;;;;;21.17;19.08;;;;;;;8.27;75.17;101463.06;5112720;28;20519;-58
2023/04/06 10:41:08;;;;;;;21.05;18.52;;;;;;;8.19;77.65;101460.72;5110271;28;20020;-57
2023/04/06 10:43:36;;;;;;;21.50;19.38;;;;;;;8.07;77.99;101450.66;5094151;28;20463;-57
2023/04/06 10:46:02;;;;;;;21.45;19.45;;;;;;;8.16;79.78;101452.91;5094013;28;20106;-57
2023/04/06 10:48:40;;;;;;;21.00;18.80;;;;;;;8.20;79.45;101459.78;5109869;27;20415;-57
2023/04/06 10:51:30;;;;;;;19.73;17.63;;;;;;;8.23;78.75;101457.00;5094248;28;20031;-57
2023/04/06 10:53:57;;;;;;;19.33;17.05;;;;;;;8.15;79.93;101460.00;5092165;27;20043;-57
2023/04/06 10:56:25;;;;;;;18.65;16.40;;;;;;;8.06;80.53;101440.97;5104188;28;20042;-57
2023/04/06 10:58:57;;;;;;;18.42;16.67;;;;;;;8.15;80.78;101448.56;5112992;27;20024;-57
2023/04/06 11:01:26;;;;;;;18.08;16.02;;;;;;;8.07;81.49;101440.06;5109954;28;20098;-57
2023/04/06 11:03:54;;;;;;;17.55;15.95;;;;;;;8.14;80.97;101439.72;5108505;28;20028;-58
2023/04/06 11:06:23;;;;;;;20.00;17.27;;;;;;;8.17;81.28;101434.28;5110862;28;20100;-57
2023/04/06 11:08:50;;;;;;;20.10;17.02;;;;;;;8.16;81.61;101427.28;5085298;28;20152;-57
2023/04/06 11:11:18;;;;;;;17.80;16.20;;;;;;;8.19;81.11;101434.25;5091389;28;20039;-57
2023/04/06 11:13:49;;;;;;;17.92;16.13;;;;;;;8.20;81.93;101433.28;5090394;28;20024;-57